nws-alerts: Checking more than four warning/county codes can delay the loading of your pages. You should use a cron job to get the data.
EllijayWeather Station Historical Data
Daily Summary for October 21, 2018 Units:  English    Metric   Both
Daily Weekly Monthly Yearly Custom
  High: Low: Average:
Temperature: 56.5 °F 36.5 °F 46.5 °F
Dew Point: 46.6 °F 27.9 °F 34.2 °F
Humidity: 78% 42% 63%
Wind Speed: 12.1mph 0mph 0.9mph
Wind Gust: 15mph - -
Wind- - WSW
Pressure: 30.33 in 30.08 in -
Precipitation: 0 in    
Historical Graphs
 
 
Tabular Data for October 21, 2018
Time Temperature Dew Point Pressure Wind Wind Speed Wind Gust Humidity Rainfall Rate (Hourly) solar
00:04 53.2 °F 46.6 °F 30.09 in NE 0.9 mph 7 mph 78% 0 in meteobridge W/m2
00:09 53.2 °F 46.2 °F 30.09 in Calm   8 mph 77% 0 in meteobridge W/m2
00:14 53.4 °F 46 °F 30.10 in Calm   2 mph 76% 0 in meteobridge W/m2
00:19 53.4 °F 45.7 °F 30.10 in Calm   5 mph 75% 0 in meteobridge W/m2
00:24 53.4 °F 45.3 °F 30.09 in Calm   6 mph 74% 0 in meteobridge W/m2
00:29 53.6 °F 45.5 °F 30.09 in Calm   2 mph 74% 0 in meteobridge W/m2
00:34 53.6 °F 45.1 °F 30.09 in NW 8.9 mph 9 mph 73% 0 in meteobridge W/m2
00:39 53.4 °F 45.3 °F 30.09 in Calm   1 mph 74% 0 in meteobridge W/m2
00:44 53.4 °F 44.2 °F 30.09 in Calm   8 mph 71% 0 in meteobridge W/m2
00:49 53.4 °F 44.6 °F 30.09 in NW 2.9 mph 7 mph 72% 0 in meteobridge W/m2
00:54 53.4 °F 43.9 °F 30.09 in WNW 0.9 mph 4 mph 70% 0 in meteobridge W/m2
00:59 53.2 °F 43.7 °F 30.08 in Calm   10 mph 70% 0 in meteobridge W/m2
01:04 53.4 °F 43.5 °F 30.08 in Calm   3 mph 69% 0 in meteobridge W/m2
01:09 53.4 °F 43.2 °F 30.08 in WNW 2 mph 8 mph 68% 0 in meteobridge W/m2
01:14 53.2 °F 42.6 °F 30.09 in Calm   14 mph 67% 0 in meteobridge W/m2
01:19 53.2 °F 42.6 °F 30.08 in Calm   10 mph 67% 0 in meteobridge W/m2
01:24 53.2 °F 42.6 °F 30.08 in NW 2 mph 7 mph 67% 0 in meteobridge W/m2
01:29 53.2 °F 42.3 °F 30.08 in Calm   9 mph 66% 0 in meteobridge W/m2
01:34 53.2 °F 42.3 °F 30.08 in WNW 12.1 mph 14 mph 66% 0 in meteobridge W/m2
01:39 53.1 °F 42.1 °F 30.09 in SE 0.9 mph 10 mph 66% 0 in meteobridge W/m2
01:44 53.1 °F 42.4 °F 30.09 in North 6.9 mph 15 mph 67% 0 in meteobridge W/m2
01:49 52.9 °F 41.9 °F 30.09 in NE 4.9 mph 9 mph 66% 0 in meteobridge W/m2
01:54 52.5 °F 42.3 °F 30.09 in Calm   3 mph 68% 0 in meteobridge W/m2
01:59 52.3 °F 42.1 °F 30.09 in Calm   4 mph 68% 0 in meteobridge W/m2
02:04 52.2 °F 42.3 °F 30.09 in NW 4 mph 4 mph 69% 0 in meteobridge W/m2
02:09 52 °F 42.8 °F 30.10 in Calm     71% 0 in meteobridge W/m2
02:14 51.4 °F 42.8 °F 30.10 in Calm   1 mph 72% 0 in meteobridge W/m2
02:19 51.1 °F 42.1 °F 30.09 in WNW 0.9 mph 7 mph 71% 0 in meteobridge W/m2
02:24 50.7 °F 40.5 °F 30.10 in Calm   10 mph 68% 0 in meteobridge W/m2
02:29 50.7 °F 40.1 °F 30.10 in Calm     67% 0 in meteobridge W/m2
02:34 50.5 °F 39.6 °F 30.10 in NNE 2 mph 8 mph 66% 0 in meteobridge W/m2
02:39 50.4 °F 39.7 °F 30.10 in Calm   1 mph 67% 0 in meteobridge W/m2
02:44 50.2 °F 39.2 °F 30.10 in NNW 4 mph 5 mph 66% 0 in meteobridge W/m2
02:49 49.8 °F 38.5 °F 30.11 in Calm   5 mph 65% 0 in meteobridge W/m2
02:54 49.6 °F 38.3 °F 30.11 in Calm   5 mph 65% 0 in meteobridge W/m2
02:59 49.5 °F 38.1 °F 30.11 in Calm   4 mph 65% 0 in meteobridge W/m2
03:04 49.3 °F 37.6 °F 30.11 in WNW 4.9 mph 6 mph 64% 0 in meteobridge W/m2
03:09 48.9 °F 36.9 °F 30.11 in Calm   4 mph 63% 0 in meteobridge W/m2
03:14 48.7 °F 36.3 °F 30.12 in Calm   3 mph 62% 0 in meteobridge W/m2
03:19 48.6 °F 35.8 °F 30.11 in Calm   5 mph 61% 0 in meteobridge W/m2
03:24 48.4 °F 35.1 °F 30.12 in Calm     60% 0 in meteobridge W/m2
03:29 48 °F 34.9 °F 30.12 in Calm   3 mph 60% 0 in meteobridge W/m2
03:34 47.8 °F 33.8 °F 30.12 in Calm   5 mph 58% 0 in meteobridge W/m2
03:39 47.7 °F 34 °F 30.12 in Calm   2 mph 59% 0 in meteobridge W/m2
03:44 47.5 °F 33.8 °F 30.12 in ENE 2.9 mph 3 mph 59% 0 in meteobridge W/m2
03:49 47.3 °F 33.6 °F 30.13 in NW 4.9 mph 8 mph 59% 0 in meteobridge W/m2
03:54 47.1 °F 34.3 °F 30.13 in Calm   10 mph 61% 0 in meteobridge W/m2
03:59 46.9 °F 34.2 °F 30.13 in Calm   1 mph 61% 0 in meteobridge W/m2
04:04 46.8 °F 33.6 °F 30.13 in West 12.1 mph 12 mph 60% 0 in meteobridge W/m2
04:09 46.6 °F 33.1 °F 30.14 in Calm   11 mph 59% 0 in meteobridge W/m2
04:14 46.2 °F 33.1 °F 30.14 in NNW 0.9 mph 5 mph 60% 0 in meteobridge W/m2
04:19 46 °F 33.8 °F 30.14 in ENE 6 mph 12 mph 62% 0 in meteobridge W/m2
04:24 45.7 °F 34.2 °F 30.14 in WNW 2.9 mph 6 mph 64% 0 in meteobridge W/m2
04:29 45.3 °F 33.8 °F 30.14 in WNW 2.9 mph 11 mph 64% 0 in meteobridge W/m2
04:34 45 °F 33.4 °F 30.15 in NNW 4.9 mph 13 mph 64% 0 in meteobridge W/m2
04:39 44.8 °F 33.3 °F 30.14 in Calm   9 mph 64% 0 in meteobridge W/m2
04:44 44.4 °F 33.1 °F 30.14 in Calm   8 mph 64% 0 in meteobridge W/m2
04:49 44.1 °F 32.7 °F 30.15 in NW 4 mph 11 mph 64% 0 in meteobridge W/m2
04:54 43.5 °F 32.5 °F 30.15 in Calm   9 mph 65% 0 in meteobridge W/m2
04:59 43.2 °F 32.5 °F 30.15 in NW 2.9 mph 14 mph 66% 0 in meteobridge W/m2
05:04 43 °F 32.4 °F 30.16 in Calm   10 mph 66% 0 in meteobridge W/m2
05:09 42.6 °F 32 °F 30.16 in NE 2.9 mph 6 mph 66% 0 in meteobridge W/m2
05:14 42.4 °F 31.8 °F 30.17 in Calm     66% 0 in meteobridge W/m2
05:19 42.3 °F 32.2 °F 30.17 in WNW 2 mph 2 mph 67% 0 in meteobridge W/m2
05:24 41.9 °F 31.8 °F 30.17 in Calm     67% 0 in meteobridge W/m2
05:29 41.5 °F 31.1 °F 30.17 in West 4.9 mph 10 mph 66% 0 in meteobridge W/m2
05:34 41.4 °F 30 °F 30.18 in Calm   7 mph 64% 0 in meteobridge W/m2
05:39 41.2 °F 29.5 °F 30.19 in Calm   5 mph 63% 0 in meteobridge W/m2
05:44 40.8 °F 28.8 °F 30.19 in WNW 4.9 mph 14 mph 62% 0 in meteobridge W/m2
05:49 40.6 °F 29.1 °F 30.19 in WNW 4.9 mph 6 mph 63% 0 in meteobridge W/m2
05:54 40.5 °F 28.4 °F 30.19 in West 4.9 mph 6 mph 62% 0 in meteobridge W/m2
05:59 40.3 °F 28.8 °F 30.19 in Calm   8 mph 63% 0 in meteobridge W/m2
06:04 39.9 °F 28.4 °F 30.20 in Calm   5 mph 63% 0 in meteobridge W/m2
06:09 39.7 °F 28.2 °F 30.20 in Calm   4 mph 63% 0 in meteobridge W/m2
06:14 39.6 °F 28.4 °F 30.20 in West 4 mph 5 mph 64% 0 in meteobridge W/m2
06:19 39.4 °F 28.2 °F 30.21 in NNW 2 mph 9 mph 64% 0 in meteobridge W/m2
06:24 39 °F 27.9 °F 30.21 in Calm   9 mph 64% 0 in meteobridge W/m2
06:29 38.8 °F 28 °F 30.21 in Calm   4 mph 65% 0 in meteobridge W/m2
06:34 38.7 °F 28.2 °F 30.22 in NNW 2.9 mph 9 mph 66% 0 in meteobridge W/m2
06:39 38.5 °F 28.4 °F 30.22 in Calm   13 mph 67% 0 in meteobridge W/m2
06:44 38.5 °F 28 °F 30.22 in Calm   7 mph 66% 0 in meteobridge W/m2
06:49 38.3 °F 28.2 °F 30.22 in NNW 0.9 mph 7 mph 67% 0 in meteobridge W/m2
06:54 37.9 °F 28 °F 30.22 in North 2.9 mph 4 mph 67% 0 in meteobridge W/m2
06:59 37.9 °F 28 °F 30.23 in Calm   10 mph 67% 0 in meteobridge W/m2
07:04 37.8 °F 28.2 °F 30.23 in Calm   6 mph 68% 0 in meteobridge W/m2
07:09 37.8 °F 28.2 °F 30.23 in Calm   4 mph 68% 0 in meteobridge W/m2
07:14 37.6 °F 28.4 °F 30.23 in North 2.9 mph 4 mph 69% 0 in meteobridge W/m2
07:19 37.4 °F 28.2 °F 30.24 in Calm   2 mph 69% 0 in meteobridge W/m2
07:24 37.2 °F 28.4 °F 30.24 in Calm   5 mph 70% 0 in meteobridge W/m2
07:29 37.2 °F 28 °F 30.24 in ENE 6 mph 9 mph 69% 0 in meteobridge W/m2
07:34 37.2 °F 28.4 °F 30.24 in Calm   5 mph 70% 0 in meteobridge W/m2
07:39 37.2 °F 28.4 °F 30.25 in Calm     70% 0 in meteobridge W/m2
07:44 37 °F 28.2 °F 30.25 in WSW 4 mph 7 mph 70% 0 in meteobridge W/m2
07:49 36.9 °F 28 °F 30.25 in Calm   3 mph 70% 0 in meteobridge W/m2
07:54 36.9 °F 28.4 °F 30.26 in Calm   3 mph 71% 0 in meteobridge W/m2
07:59 36.7 °F 28.2 °F 30.26 in Calm   5 mph 71% 0 in meteobridge W/m2
08:04 36.7 °F 28.2 °F 30.27 in North 2 mph 6 mph 71% 0 in meteobridge W/m2
08:09 36.7 °F 28.6 °F 30.27 in NE 4 mph 7 mph 72% 0 in meteobridge W/m2
08:14 36.5 °F 28.4 °F 30.27 in Calm   3 mph 72% 0 in meteobridge W/m2
08:19 36.5 °F 28.8 °F 30.27 in Calm   3 mph 73% 0 in meteobridge W/m2
08:24 36.5 °F 28.4 °F 30.28 in Calm   3 mph 72% 0 in meteobridge W/m2
08:29 36.5 °F 28.8 °F 30.28 in Calm   2 mph 73% 0 in meteobridge W/m2
08:34 36.7 °F 28.6 °F 30.28 in Calm   2 mph 72% 0 in meteobridge W/m2
08:39 36.7 °F 28.8 °F 30.29 in Calm   4 mph 73% 0 in meteobridge W/m2
08:44 36.9 °F 28.8 °F 30.29 in NNW 4 mph 7 mph 72% 0 in meteobridge W/m2
08:49 37 °F 28.9 °F 30.29 in Calm   2 mph 72% 0 in meteobridge W/m2
08:54 37.2 °F 29.1 °F 30.29 in Calm   4 mph 72% 0 in meteobridge W/m2
08:59 37.2 °F 29.1 °F 30.29 in NW 6 mph 7 mph 72% 0 in meteobridge W/m2
09:04 37.6 °F 29.3 °F 30.29 in Calm     72% 0 in meteobridge W/m2
09:09 37.9 °F 29.7 °F 30.30 in Calm   5 mph 72% 0 in meteobridge W/m2
09:14 38.1 °F 30.2 °F 30.30 in Calm   3 mph 73% 0 in meteobridge W/m2
09:19 38.5 °F 30.9 °F 30.30 in Calm   7 mph 74% 0 in meteobridge W/m2
09:24 38.7 °F 30 °F 30.30 in WNW 2 mph 5 mph 71% 0 in meteobridge W/m2
09:29 38.8 °F 29.8 °F 30.31 in Calm   7 mph 70% 0 in meteobridge W/m2
09:34 38.8 °F 29.8 °F 30.31 in Calm   6 mph 70% 0 in meteobridge W/m2
09:39 39 °F 30 °F 30.31 in Calm   8 mph 70% 0 in meteobridge W/m2
09:44 39.4 °F 30 °F 30.31 in Calm   3 mph 69% 0 in meteobridge W/m2
09:49 39.6 °F 29.8 °F 30.32 in Calm     68% 0 in meteobridge W/m2
09:54 39.7 °F 30 °F 30.32 in Calm   3 mph 68% 0 in meteobridge W/m2
09:59 40.1 °F 30.7 °F 30.32 in Calm     69% 0 in meteobridge W/m2
10:04 40.5 °F 30.4 °F 30.32 in Calm   1 mph 67% 0 in meteobridge W/m2
10:09 40.6 °F 30.6 °F 30.32 in Calm   1 mph 67% 0 in meteobridge W/m2
10:14 40.6 °F 30.6 °F 30.32 in Calm   3 mph 67% 0 in meteobridge W/m2
10:19 40.8 °F 31.1 °F 30.32 in Calm     68% 0 in meteobridge W/m2
10:24 41.2 °F 31.1 °F 30.32 in NW 0.9 mph 1 mph 67% 0 in meteobridge W/m2
10:29 41.5 °F 31.5 °F 30.32 in Calm   2 mph 67% 0 in meteobridge W/m2
10:34 42.1 °F 31.5 °F 30.32 in NW 4.9 mph 5 mph 66% 0 in meteobridge W/m2
10:39 42.4 °F 32.2 °F 30.33 in Calm   2 mph 67% 0 in meteobridge W/m2
10:44 43 °F 32 °F 30.33 in Calm   5 mph 65% 0 in meteobridge W/m2
10:49 43.3 °F 32 °F 30.33 in WNW 0.9 mph 4 mph 64% 0 in meteobridge W/m2
10:54 43.5 °F 31.8 °F 30.33 in Calm   7 mph 63% 0 in meteobridge W/m2
10:59 44.1 °F 32.4 °F 30.33 in Calm   4 mph 63% 0 in meteobridge W/m2
11:04 44.4 °F 32.2 °F 30.33 in WNW 0.9 mph 4 mph 62% 0 in meteobridge W/m2
11:09 44.8 °F 32.2 °F 30.33 in Calm   4 mph 61% 0 in meteobridge W/m2
11:14 45 °F 33.1 °F 30.33 in Calm   3 mph 63% 0 in meteobridge W/m2
11:19 45.1 °F 33.3 °F 30.33 in Calm     63% 0 in meteobridge W/m2
11:24 45.7 °F 33.1 °F 30.33 in Calm   3 mph 61% 0 in meteobridge W/m2
11:29 45.9 °F 32 °F 30.33 in Calm   1 mph 58% 0 in meteobridge W/m2
11:34 46 °F 32 °F 30.33 in Calm   4 mph 58% 0 in meteobridge W/m2
11:39 46 °F 31.3 °F 30.33 in Calm   5 mph 56% 0 in meteobridge W/m2
11:44 46.2 °F 30.9 °F 30.33 in Calm   5 mph 55% 0 in meteobridge W/m2
11:49 46.8 °F 31.5 °F 30.33 in Calm   3 mph 55% 0 in meteobridge W/m2
11:54 46.9 °F 32 °F 30.33 in Calm   4 mph 56% 0 in meteobridge W/m2
11:59 47.5 °F 31.6 °F 30.33 in Calm   3 mph 54% 0 in meteobridge W/m2
12:04 47.8 °F 31.5 °F 30.33 in Calm   5 mph 53% 0 in meteobridge W/m2
12:09 48.2 °F 32.4 °F 30.32 in Calm   2 mph 54% 0 in meteobridge W/m2
12:14 48.6 °F 32.7 °F 30.32 in Calm   6 mph 54% 0 in meteobridge W/m2
12:19 48.9 °F 32.5 °F 30.32 in Calm   1 mph 53% 0 in meteobridge W/m2
12:24 49.3 °F 31.5 °F 30.32 in NW 2 mph 7 mph 50% 0 in meteobridge W/m2
12:29 49.5 °F 31.1 °F 30.32 in Calm   4 mph 49% 0 in meteobridge W/m2
12:34 49.8 °F 32 °F 30.32 in ENE 2.9 mph 4 mph 50% 0 in meteobridge W/m2
12:39 50.2 °F 32.7 °F 30.32 in NW 2 mph 4 mph 51% 0 in meteobridge W/m2
12:44 50.4 °F 32.9 °F 30.32 in ENE 4 mph 4 mph 51% 0 in meteobridge W/m2
12:49 50.7 °F 32.2 °F 30.32 in Calm   5 mph 49% 0 in meteobridge W/m2
12:54 50.9 °F 31.5 °F 30.32 in NNW 0.9 mph 3 mph 47% 0 in meteobridge W/m2
12:59 51.3 °F 31.6 °F 30.32 in Calm   3 mph 47% 0 in meteobridge W/m2
13:04 51.3 °F 31.6 °F 30.32 in WNW 4 mph 5 mph 47% 0 in meteobridge W/m2
13:09 51.6 °F 31.5 °F 30.32 in NNW 2 mph 2 mph 46% 0 in meteobridge W/m2
13:14 52 °F 32.4 °F 30.31 in NW 2.9 mph 4 mph 47% 0 in meteobridge W/m2
13:19 52.2 °F 33.1 °F 30.31 in West 4 mph 4 mph 48% 0 in meteobridge W/m2
13:24 52.2 °F 32 °F 30.31 in Calm     46% 0 in meteobridge W/m2
13:29 52.3 °F 32.7 °F 30.31 in Calm     47% 0 in meteobridge W/m2
13:34 52.3 °F 32.7 °F 30.31 in Calm   1 mph 47% 0 in meteobridge W/m2
13:39 52.5 °F 31.8 °F 30.31 in NNW 2 mph 2 mph 45% 0 in meteobridge W/m2
13:44 52.5 °F 32.4 °F 30.31 in NW 4 mph 5 mph 46% 0 in meteobridge W/m2
13:49 52.9 °F 32.7 °F 30.31 in Calm   4 mph 46% 0 in meteobridge W/m2
13:54 53.1 °F 33.4 °F 30.31 in Calm   5 mph 47% 0 in meteobridge W/m2
13:59 53.2 °F 32.4 °F 30.30 in Calm   4 mph 45% 0 in meteobridge W/m2
14:04 53.2 °F 33.1 °F 30.30 in Calm   7 mph 46% 0 in meteobridge W/m2
14:09 53.6 °F 33.3 °F 30.30 in NE 0.9 mph 4 mph 46% 0 in meteobridge W/m2
14:14 53.8 °F 32.9 °F 30.30 in Calm   3 mph 45% 0 in meteobridge W/m2
14:19 54 °F 35.8 °F 30.29 in Calm     50% 0 in meteobridge W/m2
14:24 54.3 °F 34.5 °F 30.29 in Calm   6 mph 47% 0 in meteobridge W/m2
14:29 54.5 °F 34.2 °F 30.29 in Calm   4 mph 46% 0 in meteobridge W/m2
14:34 54.5 °F 33.6 °F 30.28 in WNW 0.9 mph 1 mph 45% 0 in meteobridge W/m2
14:39 54.7 °F 33.8 °F 30.29 in Calm     45% 0 in meteobridge W/m2
14:44 54.9 °F 33.4 °F 30.28 in Calm   5 mph 44% 0 in meteobridge W/m2
14:49 55 °F 34.7 °F 30.28 in Calm   2 mph 46% 0 in meteobridge W/m2
14:54 55.2 °F 34.9 °F 30.28 in Calm   1 mph 46% 0 in meteobridge W/m2
14:59 55.2 °F 34.9 °F 30.27 in Calm   4 mph 46% 0 in meteobridge W/m2
15:04 55.4 °F 36.5 °F 30.27 in WSW 4.9 mph 5 mph 49% 0 in meteobridge W/m2
15:09 55.6 °F 34.5 °F 30.27 in NNW 2 mph 6 mph 45% 0 in meteobridge W/m2
15:14 55.6 °F 34 °F 30.27 in Calm   4 mph 44% 0 in meteobridge W/m2
15:19 55.8 °F 33.6 °F 30.27 in NW 4.9 mph 5 mph 43% 0 in meteobridge W/m2
15:24 55.9 °F 34.3 °F 30.27 in NE 2 mph 3 mph 44% 0 in meteobridge W/m2
15:29 55.9 °F 34.9 °F 30.27 in Calm   1 mph 45% 0 in meteobridge W/m2
15:34 55.9 °F 34.3 °F 30.27 in Calm   3 mph 44% 0 in meteobridge W/m2
15:39 56.1 °F 33.3 °F 30.27 in Calm   5 mph 42% 0 in meteobridge W/m2
15:44 56.1 °F 33.3 °F 30.26 in Calm   8 mph 42% 0 in meteobridge W/m2
15:49 56.1 °F 34 °F 30.27 in Calm   6 mph 43% 0 in meteobridge W/m2
15:54 56.1 °F 33.3 °F 30.27 in Calm   3 mph 42% 0 in meteobridge W/m2
15:59 56.1 °F 34 °F 30.26 in Calm   5 mph 43% 0 in meteobridge W/m2
16:04 56.1 °F 33.3 °F 30.26 in WNW 0.9 mph 2 mph 42% 0 in meteobridge W/m2
16:09 56.3 °F 34.2 °F 30.27 in Calm   3 mph 43% 0 in meteobridge W/m2
16:14 56.3 °F 35.2 °F 30.27 in Calm     45% 0 in meteobridge W/m2
16:19 56.5 °F 38.7 °F 30.26 in Calm     51% 0 in meteobridge W/m2
16:24 56.5 °F 35.4 °F 30.26 in NNW 0.9 mph 7 mph 45% 0 in meteobridge W/m2
16:29 56.5 °F 35.4 °F 30.26 in NNW 4 mph 4 mph 45% 0 in meteobridge W/m2
16:34 56.5 °F 34.9 °F 30.26 in West 4 mph 4 mph 44% 0 in meteobridge W/m2
16:39 56.5 °F 34.9 °F 30.26 in NW 4 mph 6 mph 44% 0 in meteobridge W/m2
16:44 56.3 °F 34.7 °F 30.25 in Calm   6 mph 44% 0 in meteobridge W/m2
16:49 56.3 °F 35.2 °F 30.25 in Calm   6 mph 45% 0 in meteobridge W/m2
16:54 56.1 °F 35.1 °F 30.26 in NNW 2.9 mph 7 mph 45% 0 in meteobridge W/m2
16:59 56.1 °F 36.1 °F 30.26 in Calm   3 mph 47% 0 in meteobridge W/m2
17:04 56.1 °F 35.6 °F 30.26 in Calm   1 mph 46% 0 in meteobridge W/m2
17:09 56.1 °F 36.1 °F 30.26 in NW 0.9 mph 6 mph 47% 0 in meteobridge W/m2
17:14 55.9 °F 36.5 °F 30.25 in Calm   5 mph 48% 0 in meteobridge W/m2
17:19 55.9 °F 36.5 °F 30.25 in Calm   7 mph 48% 0 in meteobridge W/m2
17:24 55.8 °F 36.9 °F 30.25 in Calm   2 mph 49% 0 in meteobridge W/m2
17:29 55.8 °F 37.9 °F 30.25 in NNW 2 mph 2 mph 51% 0 in meteobridge W/m2
17:34 55.8 °F 37.4 °F 30.25 in Calm   1 mph 50% 0 in meteobridge W/m2
17:39 55.6 °F 37.8 °F 30.25 in Calm   1 mph 51% 0 in meteobridge W/m2
17:44 55.2 °F 37.9 °F 30.25 in Calm   4 mph 52% 0 in meteobridge W/m2
17:49 55 °F 37.8 °F 30.25 in Calm   3 mph 52% 0 in meteobridge W/m2
17:54 54.9 °F 37.6 °F 30.25 in Calm     52% 0 in meteobridge W/m2
17:59 54.7 °F 37.9 °F 30.25 in Calm   2 mph 53% 0 in meteobridge W/m2
18:04 54.5 °F 39.6 °F 30.26 in NW 2.9 mph 3 mph 57% 0 in meteobridge W/m2
18:09 54.1 °F 38.3 °F 30.26 in Calm   1 mph 55% 0 in meteobridge W/m2
18:14 54 °F 40.5 °F 30.26 in Calm     60% 0 in meteobridge W/m2
18:19 53.4 °F 40.6 °F 30.26 in Calm   1 mph 62% 0 in meteobridge W/m2
18:24 52.9 °F 43 °F 30.27 in Calm     69% 0 in meteobridge W/m2
18:29 52.2 °F 42.3 °F 30.27 in Calm     69% 0 in meteobridge W/m2
18:34 51.4 °F 41.9 °F 30.27 in Calm     70% 0 in meteobridge W/m2
18:39 50.7 °F 41.4 °F 30.27 in Calm     70% 0 in meteobridge W/m2
18:44 50.2 °F 41.2 °F 30.27 in Calm     71% 0 in meteobridge W/m2
18:49 49.5 °F 40.1 °F 30.27 in Calm     70% 0 in meteobridge W/m2
18:54 49.1 °F 40.8 °F 30.27 in Calm     73% 0 in meteobridge W/m2
18:59 48.7 °F 40.5 °F 30.27 in Calm     73% 0 in meteobridge W/m2
19:04 48.6 °F 40.6 °F 30.27 in Calm     74% 0 in meteobridge W/m2
19:09 48.2 °F 40.6 °F 30.27 in Calm     75% 0 in meteobridge W/m2
19:14 47.8 °F 40.3 °F 30.27 in Calm     75% 0 in meteobridge W/m2
19:19 47.5 °F 39.9 °F 30.27 in Calm     75% 0 in meteobridge W/m2
19:24 46.9 °F 39.4 °F 30.28 in Calm     75% 0 in meteobridge W/m2
19:29 46.8 °F 39.6 °F 30.27 in Calm     76% 0 in meteobridge W/m2
19:34 46.6 °F 39.7 °F 30.28 in Calm     77% 0 in meteobridge W/m2
19:39 46 °F 39.2 °F 30.28 in Calm     77% 0 in meteobridge W/m2
19:44 45.9 °F 39 °F 30.28 in Calm     77% 0 in meteobridge W/m2
19:49 45.5 °F 39 °F 30.28 in Calm     78% 0 in meteobridge W/m2
19:54 45.1 °F 38.7 °F 30.28 in Calm     78% 0 in meteobridge W/m2
19:59 45 °F 38.5 °F 30.28 in Calm     78% 0 in meteobridge W/m2
20:04 44.8 °F 38.3 °F 30.28 in Calm     78% 0 in meteobridge W/m2
20:09 44.4 °F 37.9 °F 30.29 in Calm     78% 0 in meteobridge W/m2
20:14 44.1 °F 37.4 °F 30.29 in Calm     77% 0 in meteobridge W/m2
20:19 43.7 °F 37 °F 30.29 in Calm     77% 0 in meteobridge W/m2
20:24 43.5 °F 37 °F 30.29 in Calm     78% 0 in meteobridge W/m2
20:29 43.3 °F 36.7 °F 30.29 in Calm     77% 0 in meteobridge W/m2
20:34 43.2 °F 36.1 °F 30.30 in Calm     76% 0 in meteobridge W/m2
20:39 43 °F 36 °F 30.30 in Calm     76% 0 in meteobridge W/m2
20:44 42.8 °F 35.4 °F 30.30 in Calm     75% 0 in meteobridge W/m2
20:49 42.6 °F 35.2 °F 30.30 in Calm     75% 0 in meteobridge W/m2
20:54 42.4 °F 35.1 °F 30.30 in Calm     75% 0 in meteobridge W/m2
20:59 42.3 °F 34.9 °F 30.30 in Calm     75% 0 in meteobridge W/m2
21:04 42.1 °F 34.3 °F 30.30 in Calm     74% 0 in meteobridge W/m2
21:09 41.7 °F 34 °F 30.30 in Calm     74% 0 in meteobridge W/m2
21:14 41.5 °F 33.6 °F 30.30 in Calm     73% 0 in meteobridge W/m2
21:19 41.4 °F 33.4 °F 30.30 in Calm     73% 0 in meteobridge W/m2
21:24 41.2 °F 33.3 °F 30.30 in Calm     73% 0 in meteobridge W/m2
21:29 41.2 °F 33.3 °F 30.30 in Calm     73% 0 in meteobridge W/m2
21:34 41 °F 32.7 °F 30.30 in Calm     72% 0 in meteobridge W/m2
21:39 40.8 °F 32.5 °F 30.31 in Calm     72% 0 in meteobridge W/m2
21:44 40.6 °F 32.4 °F 30.30 in Calm     72% 0 in meteobridge W/m2
21:49 40.5 °F 32.2 °F 30.31 in Calm     72% 0 in meteobridge W/m2
21:54 40.5 °F 32.2 °F 30.30 in Calm     72% 0 in meteobridge W/m2
21:59 40.3 °F 32 °F 30.31 in Calm     72% 0 in meteobridge W/m2
22:04 40.1 °F 31.8 °F 30.30 in Calm     72% 0 in meteobridge W/m2
22:09 39.9 °F 31.3 °F 30.30 in Calm     71% 0 in meteobridge W/m2
22:14 39.7 °F 31.1 °F 30.30 in Calm     71% 0 in meteobridge W/m2
22:19 39.7 °F 31.1 °F 30.30 in Calm     71% 0 in meteobridge W/m2
22:24 39.6 °F 30.9 °F 30.31 in Calm     71% 0 in meteobridge W/m2
22:29 39.6 °F 30.9 °F 30.31 in Calm     71% 0 in meteobridge W/m2
22:34 39.4 °F 30.7 °F 30.31 in Calm     71% 0 in meteobridge W/m2
22:39 39.4 °F 30.4 °F 30.31 in Calm     70% 0 in meteobridge W/m2
22:44 39.2 °F 30.6 °F 30.31 in Calm     71% 0 in meteobridge W/m2
22:49 39 °F 30 °F 30.31 in Calm     70% 0 in meteobridge W/m2
22:54 38.8 °F 29.8 °F 30.31 in Calm     70% 0 in meteobridge W/m2
22:59 38.8 °F 29.8 °F 30.32 in Calm     70% 0 in meteobridge W/m2
23:04 38.8 °F 29.8 °F 30.32 in Calm     70% 0 in meteobridge W/m2
23:09 38.7 °F 29.7 °F 30.32 in Calm     70% 0 in meteobridge W/m2
23:14 38.7 °F 29.7 °F 30.32 in Calm     70% 0 in meteobridge W/m2
23:19 38.7 °F 29.7 °F 30.32 in Calm     70% 0 in meteobridge W/m2
23:24 38.5 °F 29.5 °F 30.32 in Calm     70% 0 in meteobridge W/m2
23:29 38.5 °F 29.5 °F 30.32 in Calm     70% 0 in meteobridge W/m2
23:34 38.3 °F 29.3 °F 30.32 in Calm     70% 0 in meteobridge W/m2
23:39 38.1 °F 29.1 °F 30.32 in Calm     70% 0 in meteobridge W/m2
23:44 37.9 °F 29.1 °F 30.32 in Calm     70% 0 in meteobridge W/m2
23:49 37.9 °F 29.1 °F 30.32 in Calm     70% 0 in meteobridge W/m2
23:54 37.8 °F 28.9 °F 30.32 in Calm     70% 0 in meteobridge W/m2
23:59 37.8 °F 28.9 °F 30.32 in Calm     70% 0 in meteobridge W/m2
EllijayWeather
Compliments of Weather Underground - 2.5 mb